Time;durP1;ratioP1;P1;durP2;ratioP2;P2;SDS_P1;SDS_P2;PMS_P1;PMS_P2;Temp;Humidity;BMP_temperature;BMP_pressure;BME280_temperature;BME280_humidity;BME280_pressure;Samples;Min_cycle;Max_cycle;Signal;HPM_P1;HPM_P2
2022/12/24 00:02:07;;;;;;;;;6.33;3.00;;;;;14.52;78.97;-19598.53;5015740;28;45425;-92
2022/12/24 00:04:32;;;;;;;;;3.00;2.67;;;;;14.34;79.08;-19593.94;5014765;28;45439;-92
2022/12/24 00:06:58;;;;;;;;;8.00;4.33;;;;;14.51;79.01;-19598.38;5015123;28;45432;-93
2022/12/24 00:09:23;;;;;;;;;5.67;3.00;;;;;14.48;79.09;-19597.44;5015069;28;46523;-93
2022/12/24 00:11:49;;;;;;;;;3.00;2.00;;;;;14.31;79.12;-19593.16;5015736;28;45435;-92
2022/12/24 00:14:14;;;;;;;;;2.33;2.00;;;;;14.44;79.14;-19596.38;5015842;28;45886;-93
2022/12/24 00:16:39;;;;;;;;;3.33;2.33;;;;;14.29;79.18;-19592.59;5012563;28;45501;-94
2022/12/24 00:19:05;;;;;;;;;6.67;4.67;;;;;14.41;79.19;-19595.69;5012612;28;45709;-93
2022/12/24 00:21:30;;;;;;;;;5.00;2.67;;;;;14.23;79.22;-19590.88;5015114;28;45554;-94
2022/12/24 00:23:55;;;;;;;;;1.00;1.00;;;;;14.13;79.52;-19588.31;5008965;28;45575;-91
2022/12/24 00:26:21;;;;;;;;;1.00;1.00;;;;;14.27;79.06;-19592.06;5009174;28;45592;-90
2022/12/24 00:28:46;;;;;;;;;3.00;1.33;;;;;14.36;78.91;-19594.34;5004496;28;46384;-92
2022/12/24 00:31:17;;;;;;;;;7.00;2.00;;;;;14.31;78.97;-19593.00;5014545;28;45474;-91
2022/12/24 00:33:44;;;;;;;;;4.67;3.33;;;;;13.97;79.40;-19584.00;5015096;28;45411;-91
2022/12/24 00:36:10;;;;;;;;;4.67;3.00;;;;;14.24;79.41;-19591.13;5012533;28;45725;-92
2022/12/24 00:38:36;;;;;;;;;5.33;3.00;;;;;14.08;79.89;-19587.09;5015530;28;46344;-93
2022/12/24 00:41:03;;;;;;;;;3.00;2.67;;;;;14.30;79.63;-19592.88;5015211;28;45418;-93
2022/12/24 00:43:29;;;;;;;;;7.67;2.00;;;;;14.30;79.37;-19592.88;5014102;28;45405;-93
2022/12/24 00:45:58;;;;;;;;;5.33;3.67;;;;;13.91;79.66;-19582.66;5014466;28;45651;-93
2022/12/24 00:48:23;;;;;;;;;5.67;2.33;;;;;14.03;79.80;-19585.75;5009605;28;46327;-92
2022/12/24 00:50:49;;;;;;;;;4.00;2.00;;;;;13.96;79.74;-19583.75;5014732;28;45444;-92
2022/12/24 00:53:17;;;;;;;;;7.00;3.00;;;;;14.11;79.75;-19587.91;5007076;28;45518;-90
2022/12/24 00:55:43;;;;;;;;;4.33;1.67;;;;;14.28;79.68;-19592.19;5008755;28;45436;-90
2022/12/24 00:58:08;;;;;;;;;5.33;2.67;;;;;14.27;79.60;-19591.94;5018075;28;47353;-91
2022/12/24 01:00:34;;;;;;;;;9.67;3.33;;;;;14.10;79.64;-19587.63;5016850;28;45765;-95
2022/12/24 01:02:59;;;;;;;;;8.33;3.00;;;;;14.22;80.20;-19590.72;5016438;28;45620;-90
2022/12/24 01:05:24;;;;;;;;;7.33;3.33;;;;;14.24;79.70;-19591.13;5016973;28;45335;-90
2022/12/24 01:07:50;;;;;;;;;5.67;3.67;;;;;14.24;80.19;-19591.13;5015831;28;47387;-91
2022/12/24 01:10:18;;;;;;;;;5.67;2.67;;;;;13.92;79.80;-19582.81;5018105;28;45316;-91
2022/12/24 01:12:44;;;;;;;;;3.33;2.33;;;;;14.23;79.80;-19590.88;5017758;28;45500;-90
2022/12/24 01:15:12;;;;;;;;;4.33;2.33;;;;;13.83;80.17;-19580.38;5016009;28;45552;-90
2022/12/24 01:17:40;;;;;;;;;3.00;2.00;;;;;14.01;79.90;-19585.22;5017787;28;46468;-91
2022/12/24 01:20:08;;;;;;;;;10.33;4.00;;;;;14.24;80.13;-19591.13;5017551;28;45494;-90
2022/12/24 01:22:34;;;;;;;;;11.33;5.33;;;;;14.26;80.05;-19591.66;5010304;28;45747;-90
2022/12/24 01:24:59;;;;;;;;;5.67;2.67;;;;;13.94;80.06;-19583.34;5016876;28;45505;-90
2022/12/24 01:27:24;;;;;;;;;4.67;3.67;;;;;13.98;80.49;-19584.28;5016191;28;47185;-91
2022/12/24 01:29:50;;;;;;;;;2.67;2.00;;;;;13.77;80.32;-19578.78;5016856;28;45400;-90
2022/12/24 01:32:16;;;;;;;;;5.00;3.33;;;;;14.06;80.43;-19586.56;5016749;28;45557;-91
2022/12/24 01:34:41;;;;;;;;;13.00;3.67;;;;;13.50;80.77;-19571.91;5013345;28;45655;-90
2022/12/24 01:37:06;;;;;;;;;8.00;3.00;;;;;13.89;80.41;-19582.00;5010438;28;46540;-90
2022/12/24 01:39:32;;;;;;;;;5.33;4.00;;;;;13.23;80.45;-19564.78;5016801;28;45398;-91
2022/12/24 01:44:47;;;;;;;;;4.33;4.33;;;;;13.66;80.49;-19576.09;5008131;28;45469;-90
2022/12/24 01:47:28;;;;;;;;;5.33;4.00;;;;;13.93;80.67;-19583.22;5028579;28;47290;-90
2022/12/24 01:49:58;;;;;;;;;3.00;3.00;;;;;14.18;80.91;-19589.66;5027919;28;45366;-89
2022/12/24 01:52:28;;;;;;;;;5.33;2.67;;;;;13.18;80.87;-19563.31;5017819;28;45403;-89
2022/12/24 01:54:59;;;;;;;;;10.33;3.00;;;;;14.17;81.08;-19589.38;5013613;28;45359;-90
2022/12/24 01:57:33;;;;;;;;;8.00;2.00;;;;;13.88;80.90;-19581.72;4996929;28;47892;-90
2022/12/24 02:00:05;;;;;;;;;4.33;3.33;;;;;13.91;81.11;-19582.66;5004132;28;45536;-90
2022/12/24 02:02:32;;;;;;;;;10.33;2.67;;;;;13.83;81.15;-19580.50;5011525;28;45340;-90
2022/12/24 02:05:22;;;;;;;;;12.00;4.67;;;;;14.27;80.90;-19591.94;5016585;28;45551;-91
2022/12/24 02:07:48;;;;;;;;;9.00;4.00;;;;;13.94;80.84;-19583.47;5016983;28;46623;-90
2022/12/24 02:10:14;;;;;;;;;8.67;5.00;;;;;14.31;80.77;-19593.00;5018181;28;45412;-90
2022/12/24 02:12:42;;;;;;;;;4.00;2.33;;;;;13.67;81.01;-19576.22;5018519;28;45423;-90
2022/12/24 02:15:11;;;;;;;;;8.00;5.33;;;;;13.35;80.83;-19567.88;5000923;28;45535;-89
2022/12/24 02:17:47;;;;;;;;;9.00;4.33;;;;;14.29;81.09;-19592.59;5017273;28;46311;-90
2022/12/24 02:20:44;;;;;;;;;6.33;5.00;;;;;14.27;81.41;-19591.94;5017895;28;45434;-89
2022/12/24 02:23:37;;;;;;;;;3.67;3.33;;;;;14.26;81.19;-19591.81;5001455;28;45583;-90
2022/12/24 02:26:31;;;;;;;;;12.00;3.67;;;;;14.26;81.42;-19591.81;4999785;28;45545;-91
2022/12/24 02:29:50;;;;;;;;;7.67;2.67;;;;;14.26;81.19;-19591.66;4998323;28;46104;-90
2022/12/24 02:32:34;;;;;;;;;5.67;2.67;;;;;13.53;81.09;-19572.59;4918015;28;45468;-90
2022/12/24 02:35:11;;;;;;;;;7.67;3.33;;;;;14.25;81.39;-19591.53;4919805;28;45391;-90
2022/12/24 02:37:44;;;;;;;;;12.33;3.33;;;;;13.70;81.04;-19577.16;4922469;28;45384;-91
2022/12/24 02:40:22;;;;;;;;;7.33;4.67;;;;;14.24;81.31;-19591.13;4917975;28;47139;-90
2022/12/24 02:42:52;;;;;;;;;3.00;3.00;;;;;14.08;81.22;-19587.09;4929678;28;45550;-91
2022/12/24 02:45:27;;;;;;;;;3.33;1.67;;;;;13.84;81.43;-19580.78;4918018;28;45580;-90
2022/12/24 02:47:54;;;;;;;;;6.00;2.67;;;;;14.00;81.48;-19584.81;4917092;28;45798;-90
2022/12/24 02:50:20;;;;;;;;;5.67;3.33;;;;;13.82;81.52;-19580.25;4905004;28;47700;-90
2022/12/24 02:52:46;;;;;;;;;8.33;3.00;;;;;14.28;81.39;-19592.19;4922951;28;45343;-90
2022/12/24 02:55:22;;;;;;;;;3.00;3.00;;;;;14.28;81.40;-19592.19;4929338;28;45568;-90
2022/12/24 02:58:24;;;;;;;;;5.67;2.00;;;;;14.27;81.53;-19591.94;4937280;28;45360;-90
2022/12/24 03:00:57;;;;;;;;;8.00;3.00;;;;;14.20;81.03;-19590.06;4934243;28;46333;-90
2022/12/24 03:03:35;;;;;;;;;3.67;3.67;;;;;13.90;81.50;-19582.41;4934446;28;45505;-90
2022/12/24 03:06:16;;;;;;;;;5.33;3.00;;;;;14.29;81.43;-19592.59;4974753;28;45332;-90
2022/12/24 03:09:01;;;;;;;;;8.33;6.67;;;;;13.77;81.13;-19578.78;5015606;28;45377;-90
2022/12/24 03:11:26;;;;;;;;;5.33;2.67;;;;;14.29;81.21;-19592.59;5016543;28;47172;-91
2022/12/24 03:13:56;;;;;;;;;4.00;3.00;;;;;13.02;81.25;-19559.28;5012296;28;45442;-90
2022/12/24 03:16:24;;;;;;;;;8.33;3.33;;;;;14.20;81.63;-19590.19;5283063;22;45636;-91
2022/12/24 03:18:52;;;;;;;;;5.33;2.67;;;;;14.12;81.14;-19588.03;5016547;28;46187;-91
2022/12/24 03:21:24;;;;;;;;;6.67;3.67;;;;;14.32;81.26;-19593.41;5005886;28;46423;-91
2022/12/24 03:23:50;;;;;;;;;6.00;2.33;;;;;14.33;81.52;-19593.56;5008849;28;45534;-91
2022/12/24 03:26:18;;;;;;;;;8.00;3.00;;;;;14.33;80.95;-19593.69;5017328;28;45473;-90
2022/12/24 03:28:45;;;;;;;;;8.67;2.00;;;;;14.12;80.82;-19588.03;5014465;28;45568;-90
2022/12/24 03:31:11;;;;;;;;;6.33;2.00;;;;;14.33;80.94;-19593.69;5015091;28;45731;-91
2022/12/24 03:33:37;;;;;;;;;3.67;3.67;;;;;14.30;81.22;-19592.75;5007389;28;45297;-90
2022/12/24 03:36:04;;;;;;;;;5.00;3.00;;;;;13.87;81.13;-19581.59;5016816;28;45458;-90
2022/12/24 03:38:29;;;;;;;;;5.33;5.33;;;;;14.31;81.28;-19593.00;5010567;28;45559;-90
2022/12/24 03:40:54;;;;;;;;;3.33;3.33;;;;;13.81;81.00;-19579.97;5015613;28;45364;-90
2022/12/24 03:43:20;;;;;;;;;9.33;2.33;;;;;14.34;80.87;-19593.81;5000603;28;45440;-90
2022/12/24 03:45:45;;;;;;;;;3.67;2.33;;;;;13.91;80.67;-19582.53;4984087;28;45350;-90
2022/12/24 03:48:10;;;;;;;;;4.00;2.00;;;;;14.09;80.74;-19587.38;5015342;28;45476;-90
2022/12/24 03:50:36;;;;;;;;;5.33;3.00;;;;;14.03;81.09;-19585.75;5013288;28;45442;-90
2022/12/24 03:53:01;;;;;;;;;6.33;3.00;;;;;14.33;80.95;-19593.69;5015624;28;45335;-90
2022/12/24 03:55:27;;;;;;;;;3.00;2.33;;;;;14.32;80.74;-19593.41;5012382;28;45458;-90
2022/12/24 03:57:52;;;;;;;;;5.33;3.00;;;;;13.85;80.54;-19581.06;5012053;28;45529;-90
2022/12/24 04:00:18;;;;;;;;;6.67;5.00;;;;;13.66;80.85;-19575.94;5013973;28;46875;-90
2022/12/24 04:02:43;;;;;;;;;3.67;1.67;;;;;14.03;80.95;-19585.75;5014565;28;45490;-90
2022/12/24 04:05:17;;;;;;;;;3.67;3.67;;;;;14.28;81.01;-19592.34;5014142;28;45332;-90
2022/12/24 04:07:42;;;;;;;;;2.67;2.00;;;;;14.30;80.66;-19592.75;5015597;28;45547;-90
2022/12/24 04:10:08;;;;;;;;;5.00;2.00;;;;;14.29;80.84;-19592.47;4999189;28;47535;-89
2022/12/24 04:12:34;;;;;;;;;7.00;4.33;;;;;14.21;80.80;-19590.47;5016409;28;45364;-90
2022/12/24 04:15:00;;;;;;;;;5.00;2.67;;;;;14.17;80.92;-19589.25;5016505;28;45413;-90
2022/12/24 04:17:25;;;;;;;;;10.67;3.00;;;;;13.80;80.35;-19579.56;5008729;28;45650;-90
2022/12/24 04:19:50;;;;;;;;;2.00;2.00;;;;;14.14;80.73;-19588.56;4997663;28;47062;-90
2022/12/24 04:22:16;;;;;;;;;3.33;2.67;;;;;14.01;80.84;-19585.09;5001954;28;45431;-90
2022/12/24 04:24:41;;;;;;;;;5.00;3.33;;;;;14.01;81.13;-19585.09;5013871;28;45447;-90
2022/12/24 04:27:06;;;;;;;;;3.67;2.33;;;;;14.01;81.12;-19585.09;5008549;28;45503;-91
2022/12/24 04:29:32;;;;;;;;;5.67;3.33;;;;;13.92;81.21;-19582.94;5001133;28;46064;-91
2022/12/24 04:31:57;;;;;;;;;5.33;5.33;;;;;13.83;80.81;-19580.38;5001545;28;46025;-90
2022/12/24 04:34:22;;;;;;;;;6.67;2.00;;;;;14.00;81.20;-19584.94;5003263;28;45623;-90
2022/12/24 04:36:48;;;;;;;;;6.67;3.33;;;;;14.23;81.17;-19591.00;5007940;28;45383;-90
2022/12/24 04:39:13;;;;;;;;;4.00;2.33;;;;;13.98;81.27;-19584.41;5015672;28;45972;-90
2022/12/24 04:41:38;;;;;;;;;7.00;4.00;;;;;14.23;81.12;-19591.00;5001274;28;45591;-90
2022/12/24 04:44:04;;;;;;;;;4.00;2.67;;;;;13.94;80.85;-19583.47;5003038;28;45321;-91
2022/12/24 04:46:30;;;;;;;;;2.33;2.33;;;;;14.13;81.33;-19588.44;5014777;28;45460;-89
2022/12/24 04:48:56;;;;;;;;;7.67;2.33;;;;;14.19;81.24;-19589.78;5016172;28;47035;-91
2022/12/24 04:51:23;;;;;;;;;2.33;1.67;;;;;14.18;81.00;-19589.66;4995932;28;45490;-91
2022/12/24 04:53:48;;;;;;;;;6.00;2.67;;;;;13.89;81.29;-19582.13;5012767;28;45377;-91
2022/12/24 04:56:17;;;;;;;;;5.00;3.00;;;;;14.06;81.40;-19586.56;4995302;28;45555;-90
2022/12/24 04:58:44;;;;;;;;;4.00;2.33;;;;;14.18;81.50;-19589.66;5012224;28;46228;-90
2022/12/24 05:01:18;;;;;;;;;5.33;3.33;;;;;14.20;81.29;-19590.06;4999948;28;45580;-91
2022/12/24 05:03:44;;;;;;;;;4.00;2.67;;;;;14.19;81.19;-19589.78;5007746;28;45468;-90
2022/12/24 05:06:16;;;;;;;;;7.00;3.00;;;;;14.21;81.31;-19590.47;4998014;28;45550;-91
2022/12/24 05:08:43;;;;;;;;;4.67;2.67;;;;;14.08;80.99;-19587.09;5004360;28;45305;-89
2022/12/24 05:11:10;;;;;;;;;8.00;3.00;;;;;14.18;81.38;-19589.66;4998571;28;45516;-91
2022/12/24 05:13:35;;;;;;;;;5.33;2.00;;;;;13.91;81.08;-19582.53;5000589;28;45702;-90
2022/12/24 05:16:01;;;;;;;;;5.00;2.67;;;;;14.18;80.98;-19589.53;5005282;28;45540;-90
2022/12/24 05:18:26;;;;;;;;;7.00;3.00;;;;;13.81;80.81;-19579.84;5013116;28;45410;-90
2022/12/24 05:20:51;;;;;;;;;4.33;2.33;;;;;13.86;80.55;-19581.19;5018512;28;45539;-90
2022/12/24 05:26:23;;;;;;;;;8.00;4.00;;;;;13.73;81.43;-19577.97;5018637;28;45431;-89
2022/12/24 05:28:53;;;;;;;;;11.00;4.00;;;;;13.98;81.15;-19584.41;5017268;28;45948;-90
2022/12/24 05:31:20;;;;;;;;;6.33;4.00;;;;;13.90;81.22;-19582.41;5018090;28;45373;-90
2022/12/24 05:33:45;;;;;;;;;5.67;3.00;;;;;14.25;81.18;-19591.53;4997718;28;45646;-90
2022/12/24 05:36:11;;;;;;;;;3.00;3.00;;;;;14.29;81.30;-19592.47;5013894;28;45938;-90
2022/12/24 05:38:37;;;;;;;;;2.67;2.67;;;;;13.96;81.10;-19583.88;5017279;28;46883;-91
2022/12/24 05:41:02;;;;;;;;;9.00;5.00;;;;;13.94;81.28;-19583.34;5018701;28;45392;-92
2022/12/24 05:43:28;;;;;;;;;7.00;4.00;;;;;14.06;81.34;-19586.44;5016001;28;45314;-91
2022/12/24 05:45:58;;;;;;;;;6.67;3.00;;;;;14.12;81.26;-19588.19;5011014;28;45571;-91
2022/12/24 05:48:23;;;;;;;;;7.00;4.67;;;;;13.75;81.70;-19578.38;5018162;28;46798;-90
2022/12/24 05:50:49;;;;;;;;;3.33;2.00;;;;;14.32;81.52;-19593.28;5014193;28;45501;-91
2022/12/24 05:53:14;;;;;;;;;5.67;1.33;;;;;14.01;81.76;-19585.09;5017667;28;45471;-90
2022/12/24 05:55:39;;;;;;;;;8.67;3.67;;;;;14.29;82.02;-19592.59;5018425;28;45515;-90
2022/12/24 05:58:05;;;;;;;;;7.00;2.67;;;;;14.29;82.01;-19592.59;5017057;28;46164;-90
2022/12/24 06:00:30;;;;;;;;;7.33;2.00;;;;;13.99;82.42;-19584.69;5017236;28;45550;-90
2022/12/24 06:02:55;;;;;;;;;9.67;2.33;;;;;14.20;82.54;-19590.19;5016322;28;45381;-90
2022/12/24 06:05:20;;;;;;;;;3.00;3.00;;;;;13.99;82.80;-19584.69;5018653;28;45404;-90
2022/12/24 06:07:46;;;;;;;;;4.33;2.67;;;;;13.77;82.66;-19578.78;4996121;28;47126;-91
2022/12/24 06:10:11;;;;;;;;;5.33;3.33;;;;;14.00;82.85;-19584.81;5010494;28;45545;-89
2022/12/24 06:12:37;;;;;;;;;7.00;3.33;;;;;14.21;82.90;-19590.31;5016926;28;45609;-91
2022/12/24 06:15:02;;;;;;;;;5.67;3.33;;;;;14.03;83.02;-19585.63;5017787;28;45578;-90
2022/12/24 06:17:27;;;;;;;;;6.00;3.33;;;;;14.21;83.34;-19590.47;5015504;28;46973;-90
2022/12/24 06:19:56;;;;;;;;;3.33;3.33;;;;;14.20;83.48;-19590.19;4999473;28;45563;-90
2022/12/24 06:22:21;;;;;;;;;3.00;2.00;;;;;14.16;83.16;-19589.13;5257044;23;45530;-90
2022/12/24 06:24:47;;;;;;;;;4.33;3.00;;;;;13.77;83.04;-19578.78;5035322;28;46844;-90
2022/12/24 06:27:12;;;;;;;;;7.33;3.33;;;;;14.02;83.24;-19585.50;5035985;28;50536;-90
2022/12/24 06:29:37;;;;;;;;;9.33;3.33;;;;;14.12;83.48;-19588.03;5035927;28;45495;-89
2022/12/24 06:32:03;;;;;;;;;5.00;2.00;;;;;14.04;83.16;-19585.88;5035365;28;45525;-91
2022/12/24 06:34:28;;;;;;;;;7.00;4.00;;;;;13.90;83.05;-19582.25;5035598;28;45502;-90
2022/12/24 06:36:53;;;;;;;;;7.33;4.00;;;;;13.91;83.19;-19582.66;5037196;28;46070;-91
2022/12/24 06:39:19;;;;;;;;;3.33;1.33;;;;;13.80;83.37;-19579.56;5036194;28;45498;-90
2022/12/24 06:41:44;;;;;;;;;7.00;2.67;;;;;13.82;83.48;-19580.25;5037416;28;45359;-89
2022/12/24 06:44:09;;;;;;;;;3.33;1.33;;;;;13.67;83.14;-19576.22;5032796;28;45549;-90
2022/12/24 06:46:35;;;;;;;;;3.67;2.67;;;;;13.98;82.94;-19584.41;5025850;28;47162;-89
2022/12/24 06:49:00;;;;;;;;;5.33;2.00;;;;;13.87;83.11;-19581.59;5035827;28;45360;-89
2022/12/24 06:51:25;;;;;;;;;3.33;2.00;;;;;13.76;83.22;-19578.50;5035224;28;45533;-90
2022/12/24 06:53:51;;;;;;;;;5.00;1.33;;;;;13.97;83.33;-19584.16;5035961;28;45469;-90
2022/12/24 06:56:19;;;;;;;;;1.67;1.67;;;;;14.06;83.32;-19586.44;5032245;28;46284;-89
2022/12/24 06:58:44;;;;;;;;;4.67;3.33;;;;;13.82;83.17;-19580.13;5030807;28;45511;-90
2022/12/24 07:01:12;;;;;;;;;2.33;2.00;;;;;13.79;82.81;-19579.31;5035827;28;45509;-89
2022/12/24 07:03:38;;;;;;;;;6.00;3.00;;;;;14.02;82.82;-19585.50;5034206;28;45602;-90
2022/12/24 07:06:04;;;;;;;;;5.00;1.67;;;;;13.92;82.86;-19582.94;5035842;28;47161;-89
2022/12/24 07:08:32;;;;;;;;;2.00;2.00;;;;;14.04;82.82;-19585.88;5036067;28;45676;-89
2022/12/24 07:10:58;;;;;;;;;4.00;2.00;;;;;14.04;82.76;-19586.03;5037245;28;45360;-90
2022/12/24 07:13:24;;;;;;;;;2.00;0.67;;;;;13.63;82.56;-19575.28;5034627;28;45827;-89
2022/12/24 07:16:00;;;;;;;;;5.67;2.33;;;;;13.97;82.53;-19584.00;5036559;28;46187;-89
2022/12/24 07:18:26;;;;;;;;;1.67;1.67;;;;;13.74;83.01;-19578.09;5037050;28;45398;-89
2022/12/24 07:20:51;;;;;;;;;4.67;1.67;;;;;13.98;82.80;-19584.28;5036028;28;45505;-90
2022/12/24 07:23:17;;;;;;;;;0.33;0.33;;;;;13.44;82.63;-19570.16;5035152;28;45343;-89
2022/12/24 07:25:42;;;;;;;;;2.33;1.00;;;;;13.67;82.41;-19576.34;5034661;28;46283;-89
2022/12/24 07:28:08;;;;;;;;;6.33;1.00;;;;;14.00;82.42;-19584.81;5033397;28;45980;-90
2022/12/24 07:30:33;;;;;;;;;1.33;1.00;;;;;13.98;82.68;-19584.28;5035317;28;45567;-90
2022/12/24 07:32:58;;;;;;;;;2.00;1.00;;;;;13.72;82.45;-19577.69;5035755;28;45523;-90
2022/12/24 07:35:24;;;;;;;;;1.67;1.00;;;;;13.96;82.21;-19583.88;5035337;28;47314;-90
2022/12/24 07:37:49;;;;;;;;;3.00;0.67;;;;;13.97;82.24;-19584.16;5035657;28;45596;-90
2022/12/24 07:40:14;;;;;;;;;3.33;0.67;;;;;13.78;82.05;-19579.03;5035967;28;45517;-90
2022/12/24 07:42:40;;;;;;;;;4.00;1.67;;;;;13.85;81.89;-19580.91;5036277;28;45489;-90
2022/12/24 07:45:06;;;;;;;;;0.67;0.67;;;;;14.03;81.98;-19585.63;5034045;28;46009;-90
2022/12/24 07:47:31;;;;;;;;;1.00;1.00;;;;;13.56;82.12;-19573.25;5035668;28;45443;-90
2022/12/24 07:49:57;;;;;;;;;1.67;0.67;;;;;14.06;81.85;-19586.44;5036187;28;45556;-91
2022/12/24 07:52:22;;;;;;;;;2.00;0.33;;;;;13.80;81.49;-19579.56;5033923;28;45531;-88
2022/12/24 07:54:47;;;;;;;;;2.00;1.33;;;;;13.85;81.59;-19581.06;5034615;28;49780;-89
2022/12/24 07:57:13;;;;;;;;;1.67;0.67;;;;;14.06;81.95;-19586.56;5260890;22;45497;-91
2022/12/24 07:59:38;;;;;;;;;5.33;0.33;;;;;13.99;81.28;-19584.69;5014929;28;45455;-89
2022/12/24 08:02:03;;;;;;;;;3.67;0.67;;;;;13.72;81.21;-19577.69;5019448;28;45506;-93
2022/12/24 08:04:31;;;;;;;;;2.00;1.00;;;;;14.10;81.49;-19587.50;5019674;28;47283;-91
2022/12/24 08:07:05;;;;;;;;;0.67;0.67;;;;;12.48;81.64;-19545.00;5206609;22;45354;-93
2022/12/24 08:09:32;;;;;;;;;0.67;0.67;;;;;13.72;81.08;-19577.69;5001647;28;45320;-92
2022/12/24 08:12:06;;;;;;;;;2.67;0.67;;;;;12.47;81.26;-19544.72;5004299;28;45277;-94
2022/12/24 08:17:54;;;;;;;;;1.67;0.67;;;;;14.23;81.23;-19591.00;5042740;23;45485;-90
2022/12/24 08:20:19;;;;;;;;;5.67;0.67;;;;;13.97;80.28;-19584.00;5030648;28;45705;-89
2022/12/24 08:22:44;;;;;;;;;1.00;1.00;;;;;13.97;80.98;-19584.16;5027465;28;45573;-89
2022/12/24 08:25:10;;;;;;;;;2.00;0.00;;;;;14.29;80.50;-19592.47;5039336;28;45387;-89
2022/12/24 08:27:35;;;;;;;;;1.00;1.00;;;;;14.24;81.11;-19591.25;5037073;28;46168;-89
2022/12/24 08:30:01;;;;;;;;;1.33;0.00;;;;;14.04;80.52;-19585.88;5038635;28;45750;-89
2022/12/24 08:32:26;;;;;;;;;0.67;0.67;;;;;14.28;80.60;-19592.19;5038784;28;45674;-89
2022/12/24 08:34:52;;;;;;;;;1.00;1.00;;;;;14.26;80.39;-19591.81;5037000;28;45759;-92
2022/12/24 08:37:17;;;;;;;;;3.00;1.33;;;;;14.06;80.82;-19586.44;5035499;28;45984;-89
2022/12/24 08:42:10;;;;;;;;;1.33;1.33;;;;;14.32;80.48;-19593.28;4997491;28;46839;-89
2022/12/24 08:44:35;;;;;;;;;2.33;2.00;;;;;14.30;80.62;-19592.75;4997956;28;47066;-89
2022/12/24 08:47:01;;;;;;;;;0.67;0.33;;;;;14.31;80.69;-19593.16;4996848;28;50377;-87
2022/12/24 08:49:26;;;;;;;;;2.33;0.00;;;;;14.37;80.63;-19594.63;4990236;28;45332;-88
2022/12/24 08:51:51;;;;;;;;;1.67;0.00;;;;;14.22;80.25;-19590.59;4993094;28;45546;-89
2022/12/24 08:54:17;;;;;;;;;0.33;0.33;;;;;14.17;80.62;-19589.38;4992143;28;46391;-89
2022/12/24 08:56:42;;;;;;;;;1.00;0.67;;;;;14.08;80.47;-19587.09;4995064;28;45535;-87
2022/12/24 08:59:11;;;;;;;;;3.33;0.67;;;;;14.18;80.76;-19589.53;4994191;28;45304;-88
2022/12/24 09:01:36;;;;;;;;;1.67;1.00;;;;;14.42;80.82;-19595.97;4980805;28;45443;-87
2022/12/24 09:04:01;;;;;;;;;2.00;2.00;;;;;14.45;80.76;-19596.63;4996499;28;46707;-87
2022/12/24 09:06:27;;;;;;;;;0.33;0.33;;;;;14.04;80.42;-19585.88;4997878;28;45384;-91
2022/12/24 09:08:52;;;;;;;;;4.00;2.00;;;;;14.30;80.48;-19592.75;4998305;28;45596;-89
2022/12/24 09:11:19;;;;;;;;;1.00;1.00;;;;;14.21;80.72;-19590.47;5259605;22;45439;-90
2022/12/24 09:13:44;;;;;;;;;4.00;1.00;;;;;13.65;80.66;-19575.81;5013935;28;45597;-90
2022/12/24 09:16:11;;;;;;;;;1.33;1.33;;;;;14.14;80.51;-19588.72;5016564;28;45497;-88
2022/12/24 09:18:37;;;;;;;;;1.00;0.67;;;;;14.44;80.42;-19596.38;5013265;28;45427;-86
2022/12/24 09:21:10;;;;;;;;;2.00;0.00;;;;;14.44;80.53;-19596.38;5027728;28;45549;-85
2022/12/24 09:23:40;;;;;;;;;2.67;1.33;;;;;14.42;80.35;-19595.84;5017895;28;45567;-85
2022/12/24 09:26:12;;;;;;;;;1.33;1.00;;;;;14.40;80.27;-19595.44;5010575;28;45937;-86
2022/12/24 09:28:37;;;;;;;;;3.33;0.67;;;;;14.20;80.55;-19590.06;5013659;28;45492;-85
2022/12/24 09:31:04;;;;;;;;;2.33;1.00;;;;;14.20;80.45;-19590.19;5014321;28;45493;-85
2022/12/24 09:33:32;;;;;;;;;2.33;1.00;;;;;14.29;80.50;-19592.47;5018801;28;46064;-84
2022/12/24 09:35:57;;;;;;;;;2.00;2.00;;;;;14.18;80.46;-19589.53;5023531;28;46324;-85
2022/12/24 09:38:24;;;;;;;;;1.00;1.00;;;;;14.12;80.36;-19588.19;5017454;28;45471;-84
2022/12/24 09:40:50;;;;;;;;;1.00;1.00;;;;;14.44;80.34;-19596.50;5013183;28;45339;-84
2022/12/24 09:43:22;;;;;;;;;5.00;3.00;;;;;13.77;80.28;-19578.78;5005194;28;45445;-84
2022/12/24 09:46:02;;;;;;;;;0.33;0.00;;;;;14.44;80.66;-19596.50;5013853;28;45446;-84
2022/12/24 09:48:30;;;;;;;;;0.00;0.00;;;;;14.11;80.23;-19587.91;5010365;28;45451;-84
2022/12/24 09:51:02;;;;;;;;;2.00;0.67;;;;;14.43;80.14;-19596.09;5019839;28;45510;-85
2022/12/24 09:53:33;;;;;;;;;1.00;1.00;;;;;14.53;80.04;-19598.91;5020168;28;46347;-86
2022/12/24 09:56:02;;;;;;;;;2.00;0.67;;;;;14.44;79.82;-19596.50;5235110;22;45587;-85
2022/12/24 09:58:37;;;;;;;;;3.33;1.00;;;;;14.47;79.89;-19597.16;5011011;28;45396;-86
2022/12/24 10:01:03;;;;;;;;;2.33;1.00;;;;;14.19;80.05;-19589.78;5017247;28;45413;-86
2022/12/24 10:03:29;;;;;;;;;1.33;1.00;;;;;14.52;80.47;-19598.53;5016153;28;46885;-86
2022/12/24 10:06:06;;;;;;;;;2.00;1.00;;;;;14.31;80.00;-19593.00;5013952;28;45384;-86
2022/12/24 10:08:50;;;;;;;;;2.00;0.00;;;;;14.52;80.14;-19598.53;5016540;28;45491;-86
2022/12/24 10:11:22;;;;;;;;;3.00;1.67;;;;;14.54;79.78;-19599.06;5007051;28;45389;-86
2022/12/24 10:13:53;;;;;;;;;1.67;0.00;;;;;14.55;79.89;-19599.31;5001657;28;45479;-86
2022/12/24 10:16:40;;;;;;;;;1.00;1.00;;;;;14.52;79.80;-19598.66;5016188;28;45512;-86
2022/12/24 10:19:32;;;;;;;;;2.00;0.67;;;;;14.54;79.69;-19599.06;5009553;28;45345;-84
2022/12/24 10:22:02;;;;;;;;;1.00;0.00;;;;;14.34;80.10;-19593.81;5016785;28;45731;-85
2022/12/24 10:25:00;;;;;;;;;3.00;1.00;;;;;14.73;79.75;-19604.03;5015945;28;47195;-85
2022/12/24 10:27:33;;;;;;;;;1.00;1.00;;;;;14.61;79.65;-19600.81;5006161;28;45990;-84
2022/12/24 10:30:05;;;;;;;;;0.33;0.33;;;;;14.71;79.32;-19603.50;5010945;28;46112;-84
2022/12/24 10:32:33;;;;;;;;;1.67;1.00;;;;;14.83;79.35;-19606.72;5012490;28;45866;-85
2022/12/24 10:35:18;;;;;;;;;0.00;0.00;;;;;14.73;79.22;-19604.16;5015702;28;45622;-86
2022/12/24 10:37:46;;;;;;;;;2.33;1.00;;;;;14.82;79.48;-19606.31;5011228;28;45583;-85
2022/12/24 10:42:42;;;;;;;;;1.00;1.00;;;;;14.72;79.06;-19603.88;5182822;22;45442;-87
2022/12/24 10:45:14;;;;;;;;;2.00;0.00;;;;;14.85;78.79;-19607.25;4983165;28;47120;-86
2022/12/24 10:47:42;;;;;;;;;0.00;0.00;;;;;14.90;78.91;-19608.47;4976201;28;45476;-90
2022/12/24 10:50:32;;;;;;;;;0.33;0.33;;;;;14.90;78.91;-19608.47;4977692;28;46430;-86
2022/12/24 10:53:22;;;;;;;;;1.67;0.00;;;;;14.88;78.96;-19607.91;4977509;28;45495;-84
2022/12/24 10:55:48;;;;;;;;;1.00;1.00;;;;;14.92;79.61;-19609.13;4977468;28;45445;-86
2022/12/24 10:58:19;;;;;;;;;0.33;0.33;;;;;14.83;78.63;-19606.72;4976905;28;45391;-85
2022/12/24 11:04:01;;;;;;;;;1.00;1.00;;;;;14.88;79.06;-19607.91;5243646;22;45401;-86
2022/12/24 11:06:26;;;;;;;;;3.00;0.67;;;;;14.89;78.93;-19608.19;4995078;28;46161;-89
2022/12/24 11:08:51;;;;;;;;;0.33;0.33;;;;;14.92;79.01;-19609.13;4977151;28;45627;-88
2022/12/24 11:11:22;;;;;;;;;1.00;1.00;;;;;14.60;78.62;-19600.66;4995295;28;47185;-88
2022/12/24 11:13:56;;;;;;;;;0.67;0.67;;;;;14.93;78.92;-19609.41;4992848;28;45584;-87
2022/12/24 11:16:38;;;;;;;;;4.00;1.00;;;;;14.48;78.93;-19597.56;4981324;28;46103;-87
2022/12/24 11:19:14;;;;;;;;;3.00;0.67;;;;;14.25;78.70;-19591.53;4978223;28;45541;-88
2022/12/24 11:21:40;;;;;;;;;1.00;1.00;;;;;14.16;78.85;-19589.13;4994512;28;45470;-86
2022/12/24 11:24:23;;;;;;;;;2.00;0.67;;;;;15.01;79.24;-19611.28;4995758;28;45583;-87
2022/12/24 11:26:48;;;;;;;;;1.33;0.33;;;;;14.36;78.86;-19594.50;4994666;28;46398;-86
2022/12/24 11:29:23;;;;;;;;;1.00;1.00;;;;;15.02;78.98;-19611.69;4990122;28;45535;-86
2022/12/24 11:31:51;;;;;;;;;1.00;1.00;;;;;15.03;79.21;-19611.94;4991620;28;45572;-86
2022/12/24 11:34:31;;;;;;;;;1.00;0.33;;;;;14.83;78.79;-19606.59;4993866;28;45353;-86
2022/12/24 11:37:20;;;;;;;;;1.00;1.00;;;;;15.02;78.84;-19611.53;4992786;28;46258;-86
2022/12/24 11:40:00;;;;;;;;;0.00;0.00;;;;;14.55;78.52;-19599.47;4992078;28;45572;-83
2022/12/24 11:42:35;;;;;;;;;1.00;1.00;;;;;15.09;78.81;-19613.56;4989481;28;45691;-86
2022/12/24 11:45:04;;;;;;;;;2.00;1.00;;;;;15.15;78.80;-19615.03;4995039;28;45647;-86
2022/12/24 11:47:39;;;;;;;;;0.00;0.00;;;;;14.18;78.75;-19589.66;4995173;28;47141;-86
2022/12/24 11:50:35;;;;;;;;;1.00;1.00;;;;;15.16;78.85;-19615.44;4992496;28;45504;-86